Info for pilots

Image

Airfield Info:

EBUL
N51 08.7 - E003 28.6
ELEV 95' / 29m
RWY 07 / 25
799m * 45m (CIV) - 2980m (MIL)
Ursel Radio 135.130
Tel Aero Club Brugge : +32(0)9 374 25 75
Tel Vliegclub Ursel : +32(0)9 374 12 90

Operational Hours
FRI: 14h00LT - SS+30 MIN
SAT, SUN and HOL: TKOF and LDG: 10h00LT - SS+30 MIN
After 20h00LT to SS+30 MIN: only LDG allowed (PN)

Local Traffic Regulations
The use of the AD is subject to PPR from the OPR;
AD given in concession to the CIV club outside MIL ACT;
Solo training flights can only be performed after two reconnaissance flights with instructor. The solo training flight must be performed within six weeks after the first reconnaissance flight;
Jet aircraft operations not allowed.

Obstacles:
trees between 10M AGL and 22M AGL, caution when crosswind:
North of the RWY, 75M from CL, along the whole length of the RWY;
South of the RWY, 75M from CL, and at THR RWY 25 from THR RWY 07 to 140M east of THR RWY 07



Image

Image

Watch out!

Flight Procedures
RWY 07 and 25 left hand circuit, 1.200 FT QNH

Image

Taxi procedures:
RWY 07 (TKOF):
taxi on the north side of the RWY to the HLDG position of RWY 07

RWY 07 (LDG):
after landing roll out to the second intersection (THR RWY 25), turn left, turn left again, taxi via the TWY to the first intersection, turn left, cross the RWY (check for landing ACFT), taxi on the south side of the RWY to the AD reporting office

RWY 25 (TKOF):
taxi on the north side of the first intersection, turn left, next turn right, taxi via the TWY to the second intersection, turn right, taxi to the HLDG of RWY 25

RWY 25 (LDG):
after landing roll out to the end of the RWY, taxi on the south side of the RWY to the AD reporting office.





Image

Taxi & Circuit?

Image
Image
Image
Image

Current Metars - Auto refresh

EBOS - Oostende
Warning: file_get_contents(http://tgftp.nws.noaa.gov/data/observations/metar/stations/EBOS.TXT): failed to open stream: HTTP request failed! in /var/www/vhosts/acbadmin/public_html/metars/getmetar_ebos.php on line 2


EBAW - Antwerpen
2019/09/17 00:50 EBAW 170050Z AUTO 33003KT 9999 // OVC033/// 15/10 Q1021


EBBR - Brussel
2019/09/17 00:50 EBBR 170050Z 00000KT 9999 BKN027 14/12 Q1021 NOSIG

Source : NOAA.GOV

Current TAFs - Auto refresh

EBOS - Oostende
2019/09/16 18:27 TAF EBOS 161710Z 1618/1724 36010KT 9999 SCT012 BKN020 TEMPO 1618/1620 4000 -RADZ BKN008

EBAW - Antwerpen
2019/09/16 21:27 TAF TAF EBAW 162020Z 1621/1706 33003KT 9999 SCT020 PROB40 TEMPO 1700/1706 3200 BR

EBBR - Brussel
2019/09/16 18:27 TAF TAF EBBR 161710Z 1618/1724 36004KT 9999 BKN013 PROB40 TEMPO 1702/1707 4000 BR BKN006 BECMG 1707/1709 SCT020 SCT040

Source : NOAA.GOV
Image

Webcam

Direction runway 07 :